Time,TemperatureF,DewpointF,PressureIn,WindDirection,WindDirectionDegrees,WindSpeedMPH,WindSpeedGustMPH,Humidity,HourlyPrecipIn,Conditions,Clouds,dailyrainin,SolarRadiationWatts/m^2,SoftwareType,DateUTC
2014-09-20 00:03:00,74.9,74.0,29.83,ENE,57,0.0,0.0,97,0.00,,,1.68,0.00,VWS V14.01,2014-09-20 05:03:00,
2014-09-20 00:08:00,74.8,73.9,29.83,ENE,57,0.0,0.0,97,0.00,,,0.00,0.00,VWS V14.01,2014-09-20 05:08:00,
2014-09-20 00:13:00,74.8,73.9,29.83,ENE,57,0.0,0.0,97,0.00,,,0.00,0.00,VWS V14.01,2014-09-20 05:13:00,
2014-09-20 00:18:00,74.7,73.8,29.82,ENE,57,0.0,0.0,97,0.00,,,0.00,0.00,VWS V14.01,2014-09-20 05:18:00,
2014-09-20 00:23:00,74.7,73.8,29.82,ENE,57,0.0,0.0,97,0.00,,,0.00,0.00,VWS V14.01,2014-09-20 05:23:00,
2014-09-20 00:28:00,74.7,73.8,29.82,ENE,57,0.0,0.0,97,0.00,,,0.00,0.00,VWS V14.01,2014-09-20 05:28:00,
2014-09-20 00:33:00,74.7,73.8,29.82,ENE,57,0.0,0.0,97,0.00,,,0.00,0.00,VWS V14.01,2014-09-20 05:33:00,
2014-09-20 00:38:00,74.7,73.8,29.82,ENE,57,0.0,0.0,97,0.00,,,0.00,0.00,VWS V14.01,2014-09-20 05:38:00,
2014-09-20 00:43:00,74.7,73.8,29.82,ENE,57,0.0,0.0,97,0.00,,,0.00,0.00,VWS V14.01,2014-09-20 05:43:00,
2014-09-20 00:48:00,74.6,73.7,29.82,ENE,57,0.0,0.0,97,0.00,,,0.00,0.00,VWS V14.01,2014-09-20 05:48:00,
2014-09-20 00:53:00,74.6,73.7,29.82,ENE,57,0.0,0.0,97,0.00,,,0.00,0.00,VWS V14.01,2014-09-20 05:53:00,
2014-09-20 00:58:00,74.6,73.7,29.82,ENE,57,0.0,0.0,97,0.00,,,0.00,0.00,VWS V14.01,2014-09-20 05:58:00,
2014-09-20 01:03:00,74.5,73.6,29.82,ENE,57,0.0,0.0,97,0.00,,,0.00,0.00,VWS V14.01,2014-09-20 06:03:00,
2014-09-20 01:08:00,74.5,73.6,29.82,ENE,57,0.0,0.0,97,0.00,,,0.00,0.00,VWS V14.01,2014-09-20 06:08:00,
2014-09-20 01:13:00,74.4,73.5,29.82,ENE,57,0.0,0.0,97,0.00,,,0.00,0.00,VWS V14.01,2014-09-20 06:13:00,
2014-09-20 01:18:00,74.3,73.4,29.82,ENE,57,0.0,0.0,97,0.00,,,0.00,0.00,VWS V14.01,2014-09-20 06:18:00,
2014-09-20 01:23:00,74.3,73.4,29.82,ENE,57,0.0,0.0,97,0.00,,,0.00,0.00,VWS V14.01,2014-09-20 06:23:00,
2014-09-20 01:28:00,74.3,73.4,29.82,ENE,57,0.0,0.0,97,0.00,,,0.00,0.00,VWS V14.01,2014-09-20 06:28:00,
2014-09-20 01:33:00,74.2,73.3,29.82,ENE,57,0.0,0.0,97,0.00,,,0.00,0.00,VWS V14.01,2014-09-20 06:33:00,
2014-09-20 01:38:00,74.1,73.2,29.82,ENE,57,0.0,0.0,97,0.00,,,0.00,0.00,VWS V14.01,2014-09-20 06:38:00,
2014-09-20 01:43:00,74.0,73.1,29.82,ENE,57,0.0,0.0,97,0.00,,,0.00,0.00,VWS V14.01,2014-09-20 06:43:00,
2014-09-20 01:48:00,74.0,73.1,29.82,ENE,57,0.0,0.0,97,0.00,,,0.00,0.00,VWS V14.01,2014-09-20 06:48:00,
2014-09-20 01:53:00,74.0,73.1,29.82,ENE,57,0.0,0.0,97,0.00,,,0.00,0.00,VWS V14.01,2014-09-20 06:53:00,
2014-09-20 01:59:00,74.0,73.1,29.82,ENE,57,0.0,0.0,97,0.00,,,0.00,0.00,VWS V14.01,2014-09-20 06:59:00,
2014-09-20 02:04:00,74.0,73.1,29.82,ENE,57,0.0,0.0,97,0.00,,,0.00,0.00,VWS V14.01,2014-09-20 07:04:00,
2014-09-20 02:09:00,74.1,73.2,29.82,ENE,57,0.0,0.0,97,0.00,,,0.00,0.00,VWS V14.01,2014-09-20 07:09:00,
2014-09-20 02:14:00,74.1,73.2,29.82,ENE,57,0.0,0.0,97,0.00,,,0.00,0.00,VWS V14.01,2014-09-20 07:14:00,
2014-09-20 02:19:00,74.1,73.2,29.82,ENE,57,0.0,0.0,97,0.00,,,0.00,0.00,VWS V14.01,2014-09-20 07:19:00,
2014-09-20 02:24:00,74.1,73.2,29.82,ENE,57,0.0,0.0,97,0.00,,,0.00,0.00,VWS V14.01,2014-09-20 07:24:00,
2014-09-20 02:29:00,74.1,73.2,29.82,ENE,57,0.0,0.0,97,0.00,,,0.00,0.00,VWS V14.01,2014-09-20 07:29:00,
2014-09-20 02:34:00,74.2,73.3,29.82,ENE,57,0.0,1.0,97,0.00,,,0.00,0.00,VWS V14.01,2014-09-20 07:34:00,
2014-09-20 02:39:00,74.2,73.3,29.82,ENE,57,0.0,0.0,97,0.00,,,0.00,0.00,VWS V14.01,2014-09-20 07:39:00,
2014-09-20 02:44:00,74.2,73.3,29.82,ENE,57,1.0,1.0,97,0.00,,,0.00,0.00,VWS V14.01,2014-09-20 07:44:00,
2014-09-20 02:49:00,74.3,73.4,29.82,NE,43,0.0,0.0,97,0.00,,,0.00,0.00,VWS V14.01,2014-09-20 07:49:00,
2014-09-20 02:54:00,74.3,73.4,29.82,NE,43,0.0,0.0,97,0.00,,,0.00,0.00,VWS V14.01,2014-09-20 07:54:00,
2014-09-20 02:59:00,74.3,73.4,29.82,NE,42,0.0,3.0,97,0.00,,,0.00,0.00,VWS V14.01,2014-09-20 07:59:00,
2014-09-20 03:04:00,74.4,73.5,29.82,NE,42,0.0,0.0,97,0.00,,,0.00,0.00,VWS V14.01,2014-09-20 08:04:00,
2014-09-20 03:09:00,74.4,73.5,29.82,NE,42,0.0,1.0,97,0.00,,,0.00,0.00,VWS V14.01,2014-09-20 08:09:00,
2014-09-20 03:14:00,74.5,73.6,29.82,NE,42,0.0,0.0,97,0.00,,,0.00,0.00,VWS V14.01,2014-09-20 08:14:00,
2014-09-20 03:19:00,74.6,73.7,29.82,NE,42,0.0,0.0,97,0.00,,,0.00,0.00,VWS V14.01,2014-09-20 08:19:00,
2014-09-20 03:24:00,74.7,73.8,29.82,NE,42,0.0,1.0,97,0.00,,,0.00,0.00,VWS V14.01,2014-09-20 08:24:00,
2014-09-20 03:29:00,74.9,74.0,29.82,NE,42,0.0,0.0,97,0.00,,,0.00,0.00,VWS V14.01,2014-09-20 08:29:00,
2014-09-20 03:34:00,75.0,74.1,29.82,NE,42,0.0,0.0,97,0.00,,,0.00,0.00,VWS V14.01,2014-09-20 08:34:00,
2014-09-20 03:39:00,75.2,74.3,29.82,NE,42,0.0,0.0,97,0.00,,,0.00,0.00,VWS V14.01,2014-09-20 08:39:00,
2014-09-20 03:44:00,75.2,74.3,29.82,NE,42,0.0,0.0,97,0.00,,,0.00,0.00,VWS V14.01,2014-09-20 08:44:00,
2014-09-20 03:49:00,75.3,74.4,29.82,NE,42,0.0,0.0,97,0.00,,,0.00,0.00,VWS V14.01,2014-09-20 08:49:00,
2014-09-20 03:54:00,75.3,74.4,29.82,NE,42,0.0,0.0,97,0.00,,,0.00,0.00,VWS V14.01,2014-09-20 08:54:00,
2014-09-20 03:59:00,75.4,74.2,29.82,NE,42,0.0,0.0,96,0.00,,,0.00,0.00,VWS V14.01,2014-09-20 08:59:00,
2014-09-20 04:04:00,75.4,74.2,29.82,NE,42,0.0,0.0,96,0.00,,,0.00,0.00,VWS V14.01,2014-09-20 09:04:00,
2014-09-20 04:09:00,75.4,74.2,29.82,NE,42,0.0,0.0,96,0.00,,,0.00,0.00,VWS V14.01,2014-09-20 09:09:00,
2014-09-20 04:14:00,75.4,74.2,29.82,NE,42,0.0,0.0,96,0.00,,,0.00,0.00,VWS V14.01,2014-09-20 09:14:00,
2014-09-20 04:19:00,75.5,74.3,29.82,NE,42,0.0,0.0,96,0.00,,,0.00,0.00,VWS V14.01,2014-09-20 09:19:00,
2014-09-20 04:24:00,75.5,74.3,29.82,NE,42,0.0,0.0,96,0.00,,,0.00,0.00,VWS V14.01,2014-09-20 09:24:00,
2014-09-20 04:29:00,75.5,74.3,29.82,NE,42,0.0,0.0,96,0.00,,,0.00,0.00,VWS V14.01,2014-09-20 09:29:00,
2014-09-20 04:34:00,75.5,74.3,29.81,NE,42,0.0,0.0,96,0.00,,,0.00,0.00,VWS V14.01,2014-09-20 09:34:00,
2014-09-20 04:39:00,75.5,74.3,29.81,NE,42,0.0,0.0,96,0.00,,,0.00,0.00,VWS V14.01,2014-09-20 09:39:00,
2014-09-20 04:44:00,75.5,74.3,29.81,NE,42,0.0,0.0,96,0.00,,,0.00,0.00,VWS V14.01,2014-09-20 09:44:00,
2014-09-20 04:49:00,75.5,74.3,29.81,NE,42,0.0,0.0,96,0.00,,,0.00,0.00,VWS V14.01,2014-09-20 09:49:00,
2014-09-20 04:54:00,75.5,74.3,29.81,NE,42,0.0,0.0,96,0.00,,,0.00,0.00,VWS V14.01,2014-09-20 09:54:00,
2014-09-20 04:59:00,75.6,74.4,29.81,NE,42,1.0,2.0,96,0.00,,,0.00,0.00,VWS V14.01,2014-09-20 09:59:00,
2014-09-20 05:04:00,75.7,74.5,29.81,NE,42,2.0,2.0,96,0.00,,,0.00,0.00,VWS V14.01,2014-09-20 10:04:00,
2014-09-20 05:09:00,75.7,74.5,29.81,NE,42,0.0,0.0,96,0.00,,,0.00,0.00,VWS V14.01,2014-09-20 10:09:00,
2014-09-20 05:14:00,75.7,74.5,29.81,NE,42,0.0,1.0,96,0.00,,,0.00,0.00,VWS V14.01,2014-09-20 10:14:00,
2014-09-20 05:19:00,75.7,74.5,29.81,NE,42,0.0,0.0,96,0.00,,,0.00,0.00,VWS V14.01,2014-09-20 10:19:00,
2014-09-20 05:24:00,75.7,74.8,29.81,NE,42,0.0,0.0,97,0.00,,,0.00,0.00,VWS V14.01,2014-09-20 10:24:00,
2014-09-20 05:29:00,75.7,74.8,29.81,NE,42,0.0,0.0,97,0.00,,,0.00,0.00,VWS V14.01,2014-09-20 10:29:00,
2014-09-20 05:34:00,75.8,74.9,29.82,NE,42,0.0,0.0,97,0.00,,,0.00,0.00,VWS V14.01,2014-09-20 10:34:00,
2014-09-20 05:39:00,75.8,74.9,29.82,NE,39,2.0,2.0,97,0.00,,,0.00,0.00,VWS V14.01,2014-09-20 10:39:00,
2014-09-20 05:44:00,75.8,74.9,29.82,NE,38,0.0,1.0,97,0.00,,,0.00,0.00,VWS V14.01,2014-09-20 10:44:00,
2014-09-20 05:49:00,75.8,74.9,29.82,NE,39,2.0,2.0,97,0.00,,,0.00,0.00,VWS V14.01,2014-09-20 10:49:00,
2014-09-20 05:54:00,75.8,74.9,29.82,NE,39,0.0,0.0,97,0.00,,,0.00,0.00,VWS V14.01,2014-09-20 10:54:00,
2014-09-20 05:59:00,75.7,74.8,29.82,NE,38,0.0,0.0,97,0.00,,,0.00,0.00,VWS V14.01,2014-09-20 10:59:00,
2014-09-20 06:04:00,75.7,74.5,29.82,NE,40,0.0,1.0,96,0.00,,,0.00,0.00,VWS V14.01,2014-09-20 11:04:00,
2014-09-20 06:09:00,75.6,74.4,29.82,NE,38,2.0,3.0,96,0.00,,,0.00,0.00,VWS V14.01,2014-09-20 11:09:00,
2014-09-20 06:14:00,75.6,74.4,29.82,NE,38,0.0,0.0,96,0.00,,,0.00,0.00,VWS V14.01,2014-09-20 11:14:00,
2014-09-20 06:19:00,75.5,74.3,29.83,NE,38,0.0,0.0,96,0.00,,,0.00,0.00,VWS V14.01,2014-09-20 11:19:00,
2014-09-20 06:24:00,75.4,74.2,29.83,NE,39,0.0,0.0,96,0.00,,,0.00,0.00,VWS V14.01,2014-09-20 11:24:00,
2014-09-20 06:29:00,75.3,74.1,29.83,NE,38,0.0,0.0,96,0.00,,,0.00,0.00,VWS V14.01,2014-09-20 11:29:00,
2014-09-20 06:34:00,75.2,74.0,29.83,NE,39,0.0,0.0,96,0.00,,,0.00,0.00,VWS V14.01,2014-09-20 11:34:00,
2014-09-20 06:39:00,75.1,73.9,29.83,NE,38,4.0,4.0,96,0.00,,,0.00,0.00,VWS V14.01,2014-09-20 11:39:00,
2014-09-20 06:44:00,75.1,73.9,29.83,NE,38,0.0,0.0,96,0.00,,,0.00,0.00,VWS V14.01,2014-09-20 11:44:00,
2014-09-20 06:49:00,75.0,73.8,29.83,NE,38,0.0,1.0,96,0.00,,,0.00,0.00,VWS V14.01,2014-09-20 11:49:00,
2014-09-20 06:54:00,74.9,73.7,29.83,NE,38,0.0,0.0,96,0.00,,,0.00,0.00,VWS V14.01,2014-09-20 11:54:00,
2014-09-20 06:59:00,74.8,73.6,29.83,NE,38,0.0,2.0,96,0.00,,,0.00,0.00,VWS V14.01,2014-09-20 11:59:00,
2014-09-20 07:04:00,74.8,73.6,29.83,NE,39,2.0,2.0,96,0.00,,,0.00,0.00,VWS V14.01,2014-09-20 12:04:00,
2014-09-20 07:09:00,74.7,73.5,29.83,NNE,32,2.0,2.0,96,0.00,,,0.00,0.00,VWS V14.01,2014-09-20 12:09:00,
2014-09-20 07:14:00,74.7,73.5,29.83,NNE,32,2.0,2.0,96,0.00,,,0.00,0.00,VWS V14.01,2014-09-20 12:14:00,
2014-09-20 07:19:00,74.7,73.5,29.84,NNE,32,4.0,4.0,96,0.00,,,0.00,5.00,VWS V14.01,2014-09-20 12:19:00,
2014-09-20 07:24:00,74.6,73.4,29.84,NNE,32,1.0,1.0,96,0.00,,,0.00,5.00,VWS V14.01,2014-09-20 12:24:00,
2014-09-20 07:29:00,74.6,73.4,29.84,NE,37,2.0,3.0,96,0.00,,,0.00,7.00,VWS V14.01,2014-09-20 12:29:00,
2014-09-20 07:34:00,74.6,73.4,29.84,NE,37,0.0,0.0,96,0.00,,,0.00,7.00,VWS V14.01,2014-09-20 12:34:00,
2014-09-20 07:39:00,74.6,73.4,29.84,NNE,32,0.0,0.0,96,0.00,,,0.00,9.00,VWS V14.01,2014-09-20 12:39:00,
2014-09-20 07:44:00,74.6,73.4,29.84,NNE,32,3.0,4.0,96,0.00,,,0.00,11.00,VWS V14.01,2014-09-20 12:44:00,
2014-09-20 07:46:00,74.5,73.3,29.84,NNE,33,0.0,3.0,96,0.00,,,0.00,11.00,VWS V14.01,2014-09-20 12:46:00,
2014-09-20 07:51:00,74.5,73.3,29.85,NNE,33,4.0,4.0,96,0.00,,,0.00,12.00,VWS V14.01,2014-09-20 12:51:00,
2014-09-20 07:56:00,74.5,73.3,29.85,NNE,33,0.0,0.0,96,0.00,,,0.00,12.00,VWS V14.01,2014-09-20 12:56:00,
2014-09-20 08:01:00,74.5,73.3,29.85,NE,36,0.0,0.0,96,0.00,,,0.00,14.00,VWS V14.01,2014-09-20 13:01:00,
2014-09-20 08:06:00,74.4,73.2,29.85,NE,34,4.0,4.0,96,0.00,,,0.00,16.00,VWS V14.01,2014-09-20 13:06:00,
2014-09-20 08:07:00,74.5,73.3,29.85,NNE,24,4.0,4.0,96,0.00,,,0.00,16.00,VWS V14.01,2014-09-20 13:07:00,
2014-09-20 08:12:00,74.4,73.2,29.85,NNE,24,2.0,2.0,96,0.00,,,0.00,18.00,VWS V14.01,2014-09-20 13:12:00,
2014-09-20 08:17:00,74.5,73.3,29.85,NNE,23,3.0,5.0,96,0.00,,,0.00,21.00,VWS V14.01,2014-09-20 13:17:00,
2014-09-20 08:22:00,74.5,73.3,29.85,NNE,22,1.0,4.0,96,0.00,,,0.00,25.00,VWS V14.01,2014-09-20 13:22:00,
2014-09-20 08:27:00,74.6,73.4,29.85,NNE,24,1.0,2.0,96,0.00,,,0.00,33.00,VWS V14.01,2014-09-20 13:27:00,
2014-09-20 08:32:00,74.8,73.6,29.86,NNE,24,0.0,2.0,96,0.00,,,0.00,47.00,VWS V14.01,2014-09-20 13:32:00,
2014-09-20 08:37:00,75.1,73.9,29.86,NNE,24,1.0,3.0,96,0.00,,,0.00,62.00,VWS V14.01,2014-09-20 13:37:00,
2014-09-20 08:42:00,75.5,74.3,29.86,NNE,28,0.0,0.0,96,0.00,,,0.00,86.00,VWS V14.01,2014-09-20 13:42:00,
2014-09-20 08:47:00,75.8,74.6,29.86,NNE,28,4.0,5.0,96,0.00,,,0.00,111.00,VWS V14.01,2014-09-20 13:47:00,
2014-09-20 08:53:00,76.6,74.8,29.86,NNE,30,4.0,4.0,94,0.00,,,0.00,134.00,VWS V14.01,2014-09-20 13:53:00,
2014-09-20 08:58:00,77.2,75.0,29.86,NNE,30,0.0,3.0,93,0.00,,,0.00,95.00,VWS V14.01,2014-09-20 13:58:00,
2014-09-20 09:03:00,77.6,74.8,29.86,NNE,29,2.0,6.0,91,0.00,,,0.00,70.00,VWS V14.01,2014-09-20 14:03:00,
2014-09-20 09:08:00,78.0,75.2,29.86,NNE,31,2.0,5.0,91,0.00,,,0.00,107.00,VWS V14.01,2014-09-20 14:08:00,
2014-09-20 09:13:00,78.3,75.1,29.86,NNE,27,1.0,5.0,90,0.00,,,0.00,95.00,VWS V14.01,2014-09-20 14:13:00,
2014-09-20 09:18:00,78.4,75.2,29.86,NNE,23,9.0,9.0,90,0.00,,,0.00,185.00,VWS V14.01,2014-09-20 14:18:00,
2014-09-20 09:23:00,78.8,75.3,29.86,ESE,111,0.0,1.0,89,0.00,,,0.00,162.00,VWS V14.01,2014-09-20 14:23:00,
2014-09-20 09:28:00,78.8,74.9,29.86,ENE,76,0.0,1.0,88,0.00,,,0.00,172.00,VWS V14.01,2014-09-20 14:28:00,
2014-09-20 09:33:00,78.9,75.1,29.87,NE,40,1.0,9.0,88,0.00,,,0.00,160.00,VWS V14.01,2014-09-20 14:33:00,
2014-09-20 09:38:00,78.9,75.4,29.87,NNE,21,3.0,10.0,89,0.00,,,0.00,374.00,VWS V14.01,2014-09-20 14:38:00,
2014-09-20 09:43:00,79.3,75.4,29.87,NE,36,3.0,7.0,88,0.00,,,0.00,264.00,VWS V14.01,2014-09-20 14:43:00,
2014-09-20 09:48:00,79.6,75.7,29.87,NNE,32,0.0,9.0,88,0.00,,,0.00,399.00,VWS V14.01,2014-09-20 14:48:00,
2014-09-20 09:53:00,79.7,75.8,29.87,NNE,23,7.0,7.0,88,0.00,,,0.00,135.00,VWS V14.01,2014-09-20 14:53:00,
2014-09-20 09:58:00,79.4,75.5,29.87,NE,37,5.0,7.0,88,0.00,,,0.00,204.00,VWS V14.01,2014-09-20 14:58:00,
2014-09-20 10:03:00,80.0,75.8,29.87,East,82,0.0,4.0,87,0.00,,,0.00,167.00,VWS V14.01,2014-09-20 15:03:00,
2014-09-20 10:05:00,80.5,76.3,29.87,ENE,59,3.0,4.0,87,0.00,,,0.00,638.00,VWS V14.01,2014-09-20 15:05:00,
2014-09-20 10:10:00,81.5,76.6,29.87,NE,34,3.0,6.0,85,0.00,,,0.00,664.00,VWS V14.01,2014-09-20 15:10:00,
2014-09-20 10:15:00,81.8,76.5,29.87,NE,46,1.0,2.0,84,0.00,,,0.00,680.00,VWS V14.01,2014-09-20 15:15:00,
2014-09-20 10:20:00,81.9,76.2,29.87,NE,36,4.0,4.0,83,0.00,,,0.00,200.00,VWS V14.01,2014-09-20 15:20:00,
2014-09-20 10:25:00,81.6,75.6,29.87,ENE,61,0.0,0.0,82,0.00,,,0.00,223.00,VWS V14.01,2014-09-20 15:25:00,
2014-09-20 10:30:00,81.9,76.2,29.87,NNE,32,0.0,0.0,83,0.00,,,0.00,724.00,VWS V14.01,2014-09-20 15:30:00,
2014-09-20 10:35:00,82.8,77.1,29.87,NE,38,5.0,5.0,83,0.00,,,0.00,782.00,VWS V14.01,2014-09-20 15:35:00,
2014-09-20 10:40:00,82.8,76.8,29.87,NE,42,1.0,5.0,82,0.00,,,0.00,816.00,VWS V14.01,2014-09-20 15:40:00,
2014-09-20 10:45:00,82.5,76.1,29.87,East,85,0.0,5.0,81,0.00,,,0.00,276.00,VWS V14.01,2014-09-20 15:45:00,
2014-09-20 10:50:00,82.9,76.8,29.88,ENE,59,0.0,0.0,82,0.00,,,0.00,800.00,VWS V14.01,2014-09-20 15:50:00,
2014-09-20 10:55:00,83.4,76.2,29.88,NE,38,6.0,6.0,79,0.00,,,0.00,729.00,VWS V14.01,2014-09-20 15:55:00,
2014-09-20 11:00:00,82.7,75.9,29.88,NE,42,3.0,3.0,80,0.00,,,0.00,807.00,VWS V14.01,2014-09-20 16:00:00,
2014-09-20 11:05:00,82.3,75.5,29.87,NE,44,0.0,2.0,80,0.00,,,0.00,165.00,VWS V14.01,2014-09-20 16:05:00,
2014-09-20 11:10:00,83.2,76.0,29.87,NNE,31,4.0,6.0,79,0.00,,,0.00,731.00,VWS V14.01,2014-09-20 16:10:00,
2014-09-20 11:15:00,83.1,75.9,29.87,NE,40,3.0,3.0,79,0.00,,,0.00,272.00,VWS V14.01,2014-09-20 16:15:00,
2014-09-20 11:20:00,82.8,75.6,29.87,NE,36,0.0,6.0,79,0.00,,,0.00,264.00,VWS V14.01,2014-09-20 16:20:00,
2014-09-20 11:25:00,82.4,75.2,29.87,NE,37,0.0,1.0,79,0.00,,,0.00,197.00,VWS V14.01,2014-09-20 16:25:00,
2014-09-20 11:30:00,82.9,76.1,29.87,NNE,19,5.0,6.0,80,0.00,,,0.00,870.00,VWS V14.01,2014-09-20 16:30:00,
2014-09-20 11:35:00,83.7,75.7,29.87,ENE,59,6.0,10.0,77,0.00,,,0.00,197.00,VWS V14.01,2014-09-20 16:35:00,
2014-09-20 11:40:00,82.6,75.1,29.87,NE,34,3.0,5.0,78,0.00,,,0.00,211.00,VWS V14.01,2014-09-20 16:40:00,
2014-09-20 11:45:00,82.3,74.8,29.87,NE,41,4.0,6.0,78,0.00,,,0.00,179.00,VWS V14.01,2014-09-20 16:45:00,
2014-09-20 11:50:00,82.4,75.2,29.87,ENE,71,0.0,3.0,79,0.00,,,0.00,290.00,VWS V14.01,2014-09-20 16:50:00,
2014-09-20 11:55:00,83.9,75.5,29.87,NE,44,1.0,1.0,76,0.00,,,0.00,260.00,VWS V14.01,2014-09-20 16:55:00,
2014-09-20 12:00:00,83.5,75.5,29.87,NE,47,0.0,2.0,77,0.00,,,0.00,234.00,VWS V14.01,2014-09-20 17:00:00,
2014-09-20 12:05:00,83.3,75.3,29.87,NNE,30,4.0,9.0,77,0.00,,,0.00,195.00,VWS V14.01,2014-09-20 17:05:00,
2014-09-20 12:10:00,83.2,76.0,29.87,NE,55,2.0,3.0,79,0.00,,,0.00,209.00,VWS V14.01,2014-09-20 17:10:00,
2014-09-20 12:15:00,83.7,74.9,29.87,NNE,32,5.0,6.0,75,0.00,,,0.00,146.00,VWS V14.01,2014-09-20 17:15:00,
2014-09-20 12:20:00,83.2,75.2,29.87,NE,37,5.0,5.0,77,0.00,,,0.00,163.00,VWS V14.01,2014-09-20 17:20:00,
2014-09-20 12:25:00,83.7,74.5,29.87,NNE,23,0.0,11.0,74,0.00,,,0.00,926.00,VWS V14.01,2014-09-20 17:25:00,
2014-09-20 12:30:00,84.3,75.1,29.87,East,101,0.0,1.0,74,0.00,,,0.00,320.00,VWS V14.01,2014-09-20 17:30:00,
2014-09-20 12:35:00,84.7,75.9,29.87,NE,41,0.0,0.0,75,0.00,,,0.00,343.00,VWS V14.01,2014-09-20 17:35:00,
2014-09-20 12:40:00,84.4,74.4,29.87,NE,38,5.0,5.0,72,0.00,,,0.00,232.00,VWS V14.01,2014-09-20 17:40:00,
2014-09-20 12:45:00,83.3,74.6,29.87,NE,44,0.0,1.0,75,0.00,,,0.00,253.00,VWS V14.01,2014-09-20 17:45:00,
2014-09-20 12:50:00,84.4,75.6,29.87,ENE,73,0.0,4.0,75,0.00,,,0.00,336.00,VWS V14.01,2014-09-20 17:50:00,
2014-09-20 12:55:00,84.3,75.1,29.87,ENE,76,0.0,4.0,74,0.00,,,0.00,276.00,VWS V14.01,2014-09-20 17:55:00,
2014-09-20 13:00:00,83.7,74.9,29.87,ENE,61,0.0,0.0,75,0.00,,,0.00,315.00,VWS V14.01,2014-09-20 18:00:00,
2014-09-20 13:05:00,83.6,74.4,29.87,NE,52,0.0,2.0,74,0.00,,,0.00,218.00,VWS V14.01,2014-09-20 18:05:00,
2014-09-20 13:10:00,83.5,73.9,29.87,NNE,30,2.0,8.0,73,0.00,,,0.00,366.00,VWS V14.01,2014-09-20 18:10:00,
2014-09-20 13:15:00,84.6,75.0,29.87,NE,34,0.0,8.0,73,0.00,,,0.00,1000.00,VWS V14.01,2014-09-20 18:15:00,
2014-09-20 13:20:00,85.7,74.4,29.86,NE,51,5.0,5.0,69,0.00,,,0.00,967.00,VWS V14.01,2014-09-20 18:20:00,
2014-09-20 13:25:00,86.2,76.1,29.86,NNE,24,5.0,6.0,72,0.00,,,0.00,969.00,VWS V14.01,2014-09-20 18:25:00,
2014-09-20 13:30:00,86.6,75.2,29.86,NE,38,2.0,5.0,69,0.00,,,0.00,981.00,VWS V14.01,2014-09-20 18:30:00,
2014-09-20 13:35:00,86.6,73.4,29.86,NE,42,7.0,10.0,65,0.00,,,0.00,937.00,VWS V14.01,2014-09-20 18:35:00,
2014-09-20 13:40:00,86.3,74.1,29.86,NE,40,2.0,2.0,67,0.00,,,0.00,953.00,VWS V14.01,2014-09-20 18:40:00,
2014-09-20 13:45:00,86.4,74.2,29.86,NNE,30,10.0,10.0,67,0.00,,,0.00,949.00,VWS V14.01,2014-09-20 18:45:00,
2014-09-20 13:50:00,85.9,75.4,29.85,NE,34,0.0,0.0,71,0.00,,,0.00,916.00,VWS V14.01,2014-09-20 18:50:00,
2014-09-20 13:55:00,86.1,73.9,29.85,NE,37,5.0,7.0,67,0.00,,,0.00,156.00,VWS V14.01,2014-09-20 18:55:00,
2014-09-20 14:00:00,86.2,74.0,29.85,ENE,76,3.0,3.0,67,0.00,,,0.00,846.00,VWS V14.01,2014-09-20 19:00:00,
2014-09-20 14:05:00,86.4,74.6,29.85,NE,36,5.0,5.0,68,0.00,,,0.00,865.00,VWS V14.01,2014-09-20 19:05:00,
2014-09-20 14:10:00,86.8,74.5,29.85,NNE,30,3.0,3.0,67,0.00,,,0.00,798.00,VWS V14.01,2014-09-20 19:10:00,
2014-09-20 14:15:00,87.0,74.3,29.85,East,98,0.0,4.0,66,0.00,,,0.00,902.00,VWS V14.01,2014-09-20 19:15:00,
2014-09-20 14:20:00,86.8,73.6,29.84,NNE,26,0.0,5.0,65,0.00,,,0.00,856.00,VWS V14.01,2014-09-20 19:20:00,
2014-09-20 14:25:00,86.7,74.4,29.84,NE,51,3.0,4.0,67,0.00,,,0.00,879.00,VWS V14.01,2014-09-20 19:25:00,
2014-09-20 14:30:00,86.6,76.1,29.84,NE,50,1.0,5.0,71,0.00,,,0.00,807.00,VWS V14.01,2014-09-20 19:30:00,
2014-09-20 14:31:00,86.6,75.2,29.84,NE,39,7.0,7.0,69,0.00,,,0.00,803.00,VWS V14.01,2014-09-20 19:31:00,
2014-09-20 14:36:00,86.7,74.4,29.83,NNE,25,4.0,8.0,67,0.00,,,0.00,798.00,VWS V14.01,2014-09-20 19:36:00,
2014-09-20 14:41:00,86.8,75.0,29.83,ENE,71,0.0,4.0,68,0.00,,,0.00,837.00,VWS V14.01,2014-09-20 19:41:00,
2014-09-20 14:46:00,87.3,75.0,29.83,NE,46,5.0,5.0,67,0.00,,,0.00,791.00,VWS V14.01,2014-09-20 19:46:00,
2014-09-20 14:51:00,86.6,73.0,29.83,NE,49,3.0,10.0,64,0.00,,,0.00,768.00,VWS V14.01,2014-09-20 19:51:00,
2014-09-20 14:56:00,86.5,73.8,29.83,NNE,32,0.0,6.0,66,0.00,,,0.00,761.00,VWS V14.01,2014-09-20 19:56:00,
2014-09-20 15:01:00,86.7,74.0,29.83,NNE,26,3.0,5.0,66,0.00,,,0.00,751.00,VWS V14.01,2014-09-20 20:01:00,
2014-09-20 15:06:00,86.9,73.7,29.82,ENE,71,1.0,3.0,65,0.00,,,0.00,745.00,VWS V14.01,2014-09-20 20:06:00,
2014-09-20 15:11:00,87.1,74.8,29.82,NNE,27,1.0,5.0,67,0.00,,,0.00,738.00,VWS V14.01,2014-09-20 20:11:00,
2014-09-20 15:16:00,87.2,74.9,29.82,NE,40,3.0,5.0,67,0.00,,,0.00,742.00,VWS V14.01,2014-09-20 20:16:00,
2014-09-20 15:21:00,87.3,73.6,29.82,NNE,24,6.0,9.0,64,0.00,,,0.00,779.00,VWS V14.01,2014-09-20 20:21:00,
2014-09-20 15:26:00,86.3,73.6,29.82,NE,51,1.0,4.0,66,0.00,,,0.00,729.00,VWS V14.01,2014-09-20 20:26:00,
2014-09-20 15:31:00,86.7,74.4,29.82,NE,37,10.0,10.0,67,0.00,,,0.00,243.00,VWS V14.01,2014-09-20 20:31:00,
2014-09-20 15:36:00,86.8,74.5,29.82,ENE,57,2.0,3.0,67,0.00,,,0.00,729.00,VWS V14.01,2014-09-20 20:36:00,
2014-09-20 15:41:00,87.1,74.4,29.82,NE,40,1.0,4.0,66,0.00,,,0.00,744.00,VWS V14.01,2014-09-20 20:41:00,
2014-09-20 15:46:00,87.2,74.5,29.82,East,80,0.0,5.0,66,0.00,,,0.00,619.00,VWS V14.01,2014-09-20 20:46:00,
2014-09-20 15:51:00,87.3,75.0,29.81,ESE,102,0.0,0.0,67,0.00,,,0.00,656.00,VWS V14.01,2014-09-20 20:51:00,
2014-09-20 15:56:00,87.4,74.7,29.81,NE,39,0.0,0.0,66,0.00,,,0.00,663.00,VWS V14.01,2014-09-20 20:56:00,
2014-09-20 16:00:00,87.3,75.0,29.81,NNE,33,3.0,3.0,67,0.00,,,0.00,661.00,VWS V14.01,2014-09-20 21:00:00,
2014-09-20 16:05:00,87.1,74.4,29.81,NNE,25,7.0,12.0,66,0.00,,,0.00,668.00,VWS V14.01,2014-09-20 21:05:00,
2014-09-20 16:10:00,86.7,74.0,29.81,NE,38,0.0,4.0,66,0.00,,,0.00,613.00,VWS V14.01,2014-09-20 21:10:00,
2014-09-20 16:15:00,86.8,74.1,29.81,East,86,0.0,2.0,66,0.00,,,0.00,606.00,VWS V14.01,2014-09-20 21:15:00,
2014-09-20 16:20:00,86.8,73.6,29.81,ENE,68,3.0,5.0,65,0.00,,,0.00,577.00,VWS V14.01,2014-09-20 21:20:00,
2014-09-20 16:25:00,86.9,73.3,29.81,ESE,102,0.0,0.0,64,0.00,,,0.00,554.00,VWS V14.01,2014-09-20 21:25:00,
2014-09-20 16:30:00,87.1,73.9,29.81,ENE,64,2.0,2.0,65,0.00,,,0.00,559.00,VWS V14.01,2014-09-20 21:30:00,
2014-09-20 16:35:00,87.0,73.8,29.81,East,83,1.0,4.0,65,0.00,,,0.00,533.00,VWS V14.01,2014-09-20 21:35:00,
2014-09-20 16:40:00,86.6,73.4,29.81,SSE,163,1.0,6.0,65,0.00,,,0.00,515.00,VWS V14.01,2014-09-20 21:40:00,
2014-09-20 16:45:00,86.8,73.2,29.81,NNE,28,6.0,6.0,64,0.00,,,0.00,496.00,VWS V14.01,2014-09-20 21:45:00,
2014-09-20 16:50:00,86.6,73.9,29.81,NE,42,0.0,2.0,66,0.00,,,0.00,515.00,VWS V14.01,2014-09-20 21:50:00,
2014-09-20 16:55:00,86.4,73.2,29.81,NE,54,1.0,11.0,65,0.00,,,0.00,475.00,VWS V14.01,2014-09-20 21:55:00,
2014-09-20 17:00:00,86.1,73.9,29.81,NE,49,2.0,5.0,67,0.00,,,0.00,455.00,VWS V14.01,2014-09-20 22:00:00,
2014-09-20 17:05:00,86.3,74.5,29.81,NE,56,1.0,6.0,68,0.00,,,0.00,489.00,VWS V14.01,2014-09-20 22:05:00,
2014-09-20 17:10:00,86.3,74.9,29.81,NE,43,0.0,7.0,69,0.00,,,0.00,434.00,VWS V14.01,2014-09-20 22:10:00,
2014-09-20 17:15:00,85.7,73.9,29.81,NE,37,2.0,5.0,68,0.00,,,0.00,397.00,VWS V14.01,2014-09-20 22:15:00,
2014-09-20 17:20:00,85.4,73.2,29.81,ENE,60,0.0,2.0,67,0.00,,,0.00,383.00,VWS V14.01,2014-09-20 22:20:00,
2014-09-20 17:25:00,85.1,73.8,29.81,ENE,57,1.0,2.0,69,0.00,,,0.00,357.00,VWS V14.01,2014-09-20 22:25:00,
2014-09-20 17:30:00,85.0,74.1,29.81,ESE,115,4.0,4.0,70,0.00,,,0.00,336.00,VWS V14.01,2014-09-20 22:30:00,
2014-09-20 17:34:00,85.2,74.7,29.81,ESE,107,0.0,1.0,71,0.00,,,0.00,323.00,VWS V14.01,2014-09-20 22:34:00,
2014-09-20 17:39:00,85.1,74.2,29.81,SE,129,1.0,3.0,70,0.00,,,0.00,320.00,VWS V14.01,2014-09-20 22:39:00,
2014-09-20 17:43:00,84.8,74.4,29.81,NE,49,4.0,5.0,71,0.00,,,0.00,315.00,VWS V14.01,2014-09-20 22:43:00,
2014-09-20 17:48:00,85.0,75.0,29.81,NE,41,2.0,4.0,72,0.00,,,0.00,278.00,VWS V14.01,2014-09-20 22:48:00,